Time;durP1;ratioP1;P1;durP2;ratioP2;P2;SDS_P1;SDS_P2;PMS_P1;PMS_P2;Temp;Humidity;BMP_temperature;BMP_pressure;BME280_temperature;BME280_humidity;BME280_pressure;Samples;Min_cycle;Max_cycle;Signal;HPM_P1;HPM_P2
2021/04/15 00:01:13;;;;;;;8.77;5.72;;;;;;;2.40;80.62;95267.47;5087694;28;20501;-67
2021/04/15 00:03:39;;;;;;;9.63;5.82;;;;;;;2.39;81.02;95271.00;5068451;28;20446;-67
2021/04/15 00:06:14;;;;;;;9.13;6.30;;;;;;;2.44;81.05;95279.00;5103052;27;20056;-67
2021/04/15 00:08:42;;;;;;;8.93;6.63;;;;;;;2.52;80.64;95274.78;5086676;28;20048;-68
2021/04/15 00:11:10;;;;;;;10.35;6.32;;;;;;;2.60;81.18;95277.31;5069395;28;21060;-67
2021/04/15 00:13:43;;;;;;;9.75;6.65;;;;;;;2.64;80.33;95279.38;5087357;28;20509;-67
2021/04/15 00:16:10;;;;;;;9.60;6.75;;;;;;;2.65;80.43;95272.47;5086467;28;20054;-68
2021/04/15 00:18:37;;;;;;;8.77;6.10;;;;;;;2.68;80.05;95275.50;5086036;28;20497;-67
2021/04/15 00:21:05;;;;;;;9.18;6.57;;;;;;;2.65;79.94;95269.91;5087150;28;20043;-67
2021/04/15 00:23:32;;;;;;;10.13;5.50;;;;;;;2.59;79.51;95266.25;5087332;28;20043;-68
2021/04/15 00:25:59;;;;;;;7.97;5.60;;;;;;;2.62;79.00;95260.72;5087375;28;20512;-68
2021/04/15 00:28:26;;;;;;;8.73;6.78;;;;;;;2.51;79.37;95252.63;5087136;28;20036;-67
2021/04/15 00:30:53;;;;;;;9.40;7.07;;;;;;;2.60;79.92;95272.97;5087027;28;20052;-67
2021/04/15 00:33:19;;;;;;;8.93;6.32;;;;;;;2.68;79.33;95266.97;5086825;28;20036;-68
2021/04/15 00:35:47;;;;;;;11.63;7.07;;;;;;;2.77;79.35;95260.00;5070261;28;20044;-67
2021/04/15 00:38:14;;;;;;;9.70;5.47;;;;;;;2.60;79.33;95256.75;5087029;28;20783;-68
2021/04/15 00:40:43;;;;;;;8.30;6.00;;;;;;;2.58;79.61;95263.84;5085105;28;20044;-68
2021/04/15 00:43:12;;;;;;;10.02;7.35;;;;;;;2.62;79.37;95259.94;5087210;28;20043;-68
2021/04/15 00:45:44;;;;;;;10.35;7.70;;;;;;;2.58;79.87;95258.69;5086972;28;20110;-68
2021/04/15 00:48:46;;;;;;;9.65;7.07;;;;;;;2.59;80.07;95255.13;5086988;28;20166;-67
2021/04/15 00:51:40;;;;;;;9.40;5.97;;;;;;;2.51;80.49;95250.06;5085762;28;20044;-67
2021/04/15 00:54:11;;;;;;;8.60;6.03;;;;;;;2.48;80.42;95269.19;5085497;28;20047;-68
2021/04/15 00:56:38;;;;;;;8.50;6.03;;;;;;;2.37;80.69;95244.66;5086176;28;20044;-68
2021/04/15 00:59:06;;;;;;;9.73;6.20;;;;;;;2.47;81.04;95255.53;5086677;28;20044;-68
2021/04/15 01:01:33;;;;;;;9.07;6.57;;;;;;;2.42;80.98;95255.22;5086475;28;20047;-67
2021/04/15 01:04:00;;;;;;;9.95;6.60;;;;;;;2.43;81.37;95256.84;5068236;28;20044;-67
2021/04/15 01:06:26;;;;;;;10.02;6.45;;;;;;;2.47;81.12;95252.97;5086385;28;20069;-68
2021/04/15 01:08:53;;;;;;;13.18;6.75;;;;;;;2.40;81.11;95241.75;5086411;28;20051;-67
2021/04/15 01:11:38;;;;;;;8.48;6.07;;;;;;;2.41;80.95;95253.66;5085610;28;20366;-67
2021/04/15 01:14:40;;;;;;;8.82;6.85;;;;;;;2.44;80.92;95258.44;5086388;28;20040;-68
2021/04/15 01:17:06;;;;;;;8.82;6.43;;;;;;;2.42;80.84;95259.59;5044384;28;20143;-67
2021/04/15 01:20:03;;;;;;;9.80;6.85;;;;;;;2.50;80.43;95254.38;5086338;28;20119;-68
2021/04/15 01:22:32;;;;;;;15.48;7.93;;;;;;;2.40;81.20;95252.03;5084876;28;20484;-68
2021/04/15 01:25:18;;;;;;;14.43;7.97;;;;;;;2.40;80.93;95259.75;5086264;28;20050;-68
2021/04/15 01:27:51;;;;;;;10.68;6.50;;;;;;;2.42;80.76;95255.22;5086011;28;20092;-67
2021/04/15 01:30:29;;;;;;;22.23;7.10;;;;;;;2.45;80.47;95254.91;5086165;28;20047;-67
2021/04/15 01:33:13;;;;;;;11.48;6.78;;;;;;;2.46;80.42;95256.47;5083229;28;20050;-68
2021/04/15 01:35:54;;;;;;;22.15;7.35;;;;;;;2.48;80.26;95259.72;5085197;28;20040;-68
2021/04/15 01:38:27;;;;;;;18.52;7.57;;;;;;;2.47;80.42;95265.81;5084632;28;20382;-67
2021/04/15 01:41:00;;;;;;;14.35;6.22;;;;;;;2.52;80.39;95255.03;5085868;28;20472;-67
2021/04/15 01:43:37;;;;;;;11.15;7.15;;;;;;;2.57;80.31;95259.66;5085352;28;20040;-68
2021/04/15 01:46:06;;;;;;;8.32;6.20;;;;;;;2.53;80.56;95250.69;5085959;28;20043;-68
2021/04/15 01:48:34;;;;;;;8.85;6.07;;;;;;;2.62;80.20;95252.22;5084422;28;20036;-68
2021/04/15 01:51:19;;;;;;;8.82;6.63;;;;;;;2.59;80.27;95255.94;5085969;28;20528;-68
2021/04/15 01:58:05;;;;;;;8.85;6.30;;;;;;;2.60;80.47;95256.75;4910133;29;20494;-68
2021/04/15 02:00:34;;;;;;;7.57;5.53;;;;;;;2.64;80.43;95255.41;4925723;29;20055;-68
2021/04/15 02:03:19;;;;;;;10.02;6.78;;;;;;;2.52;81.05;95247.31;4925251;29;20067;-67
2021/04/15 02:06:19;;;;;;;8.35;5.80;;;;;;;2.64;80.69;95252.84;4925721;29;20056;-68
2021/04/15 02:09:23;;;;;;;;;;;;;;;2.59;80.87;95255.13;4925655;29;20072;-67
2021/04/15 02:11:57;;;;;;;9.25;6.38;;;;;;;2.60;80.71;95251.59;4940257;29;20020;-67
2021/04/15 02:14:27;;;;;;;9.52;6.95;;;;;;;2.64;80.91;95258.78;4925472;29;20052;-68
2021/04/15 02:16:57;;;;;;;10.13;6.97;;;;;;;2.61;80.80;95264.28;4925608;29;20584;-68
2021/04/15 02:19:46;;;;;;;11.93;7.75;;;;;;;2.65;80.76;95264.75;4925392;29;20054;-68
2021/04/15 02:22:33;;;;;;;11.32;6.78;;;;;;;2.67;81.22;95273.09;4909565;29;20059;-67
2021/04/15 02:25:13;;;;;;;11.05;7.03;;;;;;;2.66;80.48;95279.19;4925300;29;20047;-68
2021/04/15 02:27:59;;;;;;;8.82;6.93;;;;;;;2.75;80.42;95275.59;4925467;29;20526;-68
2021/04/15 02:30:30;;;;;;;9.10;6.45;;;;;;;2.58;80.89;95274.13;4925395;29;20056;-67
2021/04/15 02:33:25;;;;;;;9.93;7.07;;;;;;;2.62;80.96;95277.94;4925478;29;20624;-68
2021/04/15 02:39:38;;;;;;;11.55;7.45;;;;;;;2.45;81.76;95270.31;5085393;28;20433;-68
2021/04/15 02:42:07;;;;;;;10.40;7.65;;;;;;;2.38;81.77;95274.53;5084232;28;20488;-68
2021/04/15 02:44:49;;;;;;;9.18;6.82;;;;;;;2.41;81.99;95279.34;5084970;28;20569;-68
2021/04/15 02:47:26;;;;;;;11.20;7.57;;;;;;;2.36;82.79;95275.66;5085421;28;20040;-67
2021/04/15 02:49:55;;;;;;;11.02;7.95;;;;;;;2.47;82.49;95281.25;5083721;28;20519;-68
2021/04/15 02:52:27;;;;;;;12.02;8.13;;;;;;;2.42;83.00;95280.94;5084722;28;20042;-68
2021/04/15 02:54:58;;;;;;;12.82;8.82;;;;;;;2.40;83.02;95270.03;5086363;28;20497;-67
2021/04/15 02:57:28;;;;;;;11.80;7.90;;;;;;;2.33;83.20;95276.81;5083632;28;20075;-67
2021/04/15 02:59:57;;;;;;;14.40;9.35;;;;;;;2.35;83.83;95274.88;5084924;28;20433;-67
2021/04/15 03:02:28;;;;;;;13.82;8.98;;;;;;;2.22;84.52;95279.78;5084986;28;20557;-67
2021/04/15 03:05:03;;;;;;;13.45;10.10;;;;;;;2.28;84.84;95284.22;5084541;28;20036;-68
2021/04/15 03:07:33;;;;;;;15.00;10.52;;;;;;;2.30;84.60;95290.00;5084576;28;20435;-68
2021/04/15 03:10:01;;;;;;;16.17;10.93;;;;;;;2.25;85.16;95289.69;5086082;28;20067;-68
2021/04/15 03:12:39;;;;;;;18.48;11.88;;;;;;;2.25;85.20;95280.22;5084641;28;20044;-68
2021/04/15 03:15:25;;;;;;;15.38;9.93;;;;;;;2.25;85.90;95285.38;5087464;28;20119;-68
2021/04/15 03:17:58;;;;;;;21.85;11.63;;;;;;;2.16;85.82;95275.28;5088241;28;20470;-68
2021/04/15 03:20:37;;;;;;;15.90;10.65;;;;;;;2.27;86.01;95282.63;5087661;28;20051;-68
2021/04/15 03:23:19;;;;;;;16.63;10.93;;;;;;;2.25;86.14;95281.97;5088475;28;20047;-67
2021/04/15 03:25:47;;;;;;;17.80;11.05;;;;;;;2.22;86.45;95292.63;5088355;28;20111;-67
2021/04/15 03:28:17;;;;;;;18.90;12.45;;;;;;;2.19;86.56;95290.38;5088240;28;20043;-68
2021/04/15 03:31:04;;;;;;;21.08;12.93;;;;;;;2.20;86.54;95289.41;5088124;28;20118;-68
2021/04/15 03:33:44;;;;;;;20.63;12.30;;;;;;;2.13;86.74;95275.63;5087511;28;20120;-68
2021/04/15 03:36:20;;;;;;;17.48;11.55;;;;;;;2.21;86.96;95283.28;5086027;28;20047;-68
2021/04/15 03:39:00;;;;;;;19.48;11.95;;;;;;;2.28;86.44;95284.22;5087733;28;20067;-68
2021/04/15 03:41:35;;;;;;;17.73;11.68;;;;;;;2.18;86.86;95284.44;5087205;28;20040;-68
2021/04/15 03:44:04;;;;;;;19.80;12.00;;;;;;;2.24;86.97;95277.81;5070081;28;20493;-68
2021/04/15 03:46:56;;;;;;;19.00;12.70;;;;;;;2.24;87.21;95293.25;5087981;28;20068;-68
2021/04/15 03:49:39;;;;;;;18.23;9.75;;;;;;;2.21;86.64;95283.28;5076406;28;20051;-68
2021/04/15 03:52:16;;;;;;;18.85;11.68;;;;;;;2.25;87.04;95269.13;5087535;28;20040;-68
2021/04/15 03:54:48;;;;;;;19.50;12.25;;;;;;;2.27;87.49;95274.94;5087778;28;20475;-68
2021/04/15 03:57:18;;;;;;;19.92;13.35;;;;;;;2.19;87.73;95285.22;5086880;28;20044;-67
2021/04/15 03:59:51;;;;;;;26.45;15.40;;;;;;;2.20;87.73;95281.72;5087630;28;20038;-68
2021/04/15 04:02:41;;;;;;;21.67;13.73;;;;;;;2.17;88.27;95287.19;5086497;28;20031;-68
2021/04/15 04:05:13;;;;;;;21.75;15.07;;;;;;;2.10;88.32;95277.53;5086806;28;20559;-68
2021/04/15 04:07:45;;;;;;;24.00;16.40;;;;;;;2.28;87.54;95284.22;5087430;28;20135;-68
2021/04/15 04:10:21;;;;;;;19.02;12.23;;;;;;;2.26;87.65;95281.03;5087318;28;20040;-68
2021/04/15 04:13:15;;;;;;;18.80;12.43;;;;;;;2.34;87.52;95293.03;5086527;28;20040;-68
2021/04/15 04:15:50;;;;;;;21.02;13.40;;;;;;;2.20;88.29;95274.00;5086527;28;20099;-68
2021/04/15 04:18:21;;;;;;;23.17;13.07;;;;;;;2.27;87.70;95292.91;5086657;28;20052;-68
2021/04/15 04:20:52;;;;;;;18.63;11.82;;;;;;;2.31;87.00;95278.75;5069462;28;20048;-68
2021/04/15 04:23:36;;;;;;;19.25;13.20;;;;;;;2.44;87.25;95294.44;5087422;28;20107;-69
2021/04/15 04:26:35;;;;;;;17.57;12.13;;;;;;;2.36;86.71;95276.50;5086442;28;20047;-68
2021/04/15 04:29:17;;;;;;;17.05;10.80;;;;;;;2.53;86.40;95286.69;5068248;28;20048;-68
2021/04/15 04:31:47;;;;;;;24.23;14.65;;;;;;;2.57;86.81;95300.78;5068506;28;20077;-68
2021/04/15 04:34:17;;;;;;;21.48;13.13;;;;;;;2.63;87.21;95300.91;5085275;28;20048;-69
2021/04/15 04:36:46;;;;;;;18.40;13.45;;;;;;;2.60;86.20;95282.47;5085659;28;20115;-68
2021/04/15 04:39:16;;;;;;;20.10;12.80;;;;;;;2.91;85.75;95300.41;5086962;28;20050;-68
2021/04/15 04:42:09;;;;;;;20.90;12.90;;;;;;;2.90;85.48;95287.72;5086635;28;20040;-68
2021/04/15 04:44:50;;;;;;;20.42;13.32;;;;;;;3.01;85.02;95295.06;5055842;28;20064;-68
2021/04/15 04:47:36;;;;;;;20.75;13.02;;;;;;;3.05;84.50;95296.31;5086818;28;20040;-68
2021/04/15 04:50:32;;;;;;;22.25;13.68;;;;;;;3.06;84.48;95300.47;5086313;28;20044;-68
2021/04/15 04:53:03;;;;;;;19.92;13.18;;;;;;;2.95;83.70;95296.53;5085289;28;20055;-68
2021/04/15 04:56:01;;;;;;;17.42;11.25;;;;;;;2.93;83.31;95298.47;5086664;28;20043;-68
2021/04/15 04:58:27;;;;;;;17.35;11.68;;;;;;;2.92;83.96;95293.50;5086689;28;20054;-68
2021/04/15 05:00:56;;;;;;;19.55;12.23;;;;;;;2.97;84.18;95304.91;5086119;28;20036;-68
2021/04/15 05:03:26;;;;;;;19.02;10.95;;;;;;;2.94;84.01;95305.22;5084455;28;20032;-69
2021/04/15 05:06:08;;;;;;;20.23;12.63;;;;;;;2.93;84.22;95302.81;5085149;28;20035;-68
2021/04/15 05:08:54;;;;;;;17.52;11.30;;;;;;;2.97;84.32;95309.22;5086930;28;20040;-68
2021/04/15 05:11:21;;;;;;;19.70;13.18;;;;;;;2.99;84.26;95312.41;5085376;28;20043;-68
2021/04/15 05:13:48;;;;;;;22.55;14.32;;;;;;;3.02;84.19;95296.66;5085582;28;20042;-69
2021/04/15 05:16:15;;;;;;;26.10;13.10;;;;;;;3.18;83.65;95304.25;5086202;28;20047;-68
2021/04/15 05:18:41;;;;;;;21.90;13.18;;;;;;;3.22;83.56;95308.09;5087420;28;20054;-69
2021/04/15 05:21:15;;;;;;;19.35;12.95;;;;;;;3.32;82.92;95318.13;5067948;28;20056;-68
2021/04/15 05:23:54;;;;;;;23.58;14.48;;;;;;;3.36;84.19;95303.13;5085772;28;20064;-68
2021/04/15 05:26:24;;;;;;;23.92;12.82;;;;;;;3.61;82.56;95317.41;5085890;28;20508;-68
2021/04/15 05:28:56;;;;;;;23.98;15.98;;;;;;;3.73;82.59;95309.25;5086178;28;20059;-68
2021/04/15 05:31:25;;;;;;;22.58;13.50;;;;;;;3.88;82.09;95307.47;5085747;28;20531;-68
2021/04/15 05:33:53;;;;;;;20.85;14.52;;;;;;;3.81;80.68;95311.72;5084660;28;20036;-68
2021/04/15 05:36:53;;;;;;;20.17;12.90;;;;;;;3.90;80.86;95315.03;5083988;28;20540;-68
2021/04/15 05:39:21;;;;;;;22.17;12.93;;;;;;;3.74;80.72;95321.94;5042269;28;20071;-68
2021/04/15 05:41:55;;;;;;;22.55;14.05;;;;;;;3.71;80.08;95324.88;5083972;28;20044;-69
2021/04/15 05:44:50;;;;;;;26.50;16.10;;;;;;;3.70;80.39;95309.59;5084997;28;20059;-69
2021/04/15 05:47:25;;;;;;;29.23;15.77;;;;;;;3.62;81.11;95303.56;5050056;28;20048;-69
2021/04/15 05:49:57;;;;;;;21.60;13.73;;;;;;;3.63;81.30;95305.13;5086566;28;20050;-69
2021/04/15 05:52:43;;;;;;;19.02;11.50;;;;;;;3.57;79.77;95315.34;5086181;28;20162;-69
2021/04/15 05:55:19;;;;;;;20.95;12.82;;;;;;;3.66;80.00;95318.66;5085643;28;20140;-68
2021/04/15 05:57:53;;;;;;;19.30;13.68;;;;;;;3.71;79.97;95316.34;5085781;28;20392;-69
2021/04/15 06:00:28;;;;;;;21.30;13.02;;;;;;;3.75;79.96;95312.44;5085762;28;20044;-68
2021/04/15 06:03:13;;;;;;;27.25;12.93;;;;;;;3.77;80.19;95310.50;5085749;28;20059;-69
2021/04/15 06:05:43;;;;;;;20.27;12.40;;;;;;;3.73;80.24;95315.19;5065906;28;20043;-69
2021/04/15 06:08:10;;;;;;;19.55;12.70;;;;;;;3.68;80.03;95311.56;5101182;28;20052;-69
2021/04/15 06:10:40;;;;;;;19.98;12.18;;;;;;;3.69;79.41;95313.13;5086687;28;20127;-68
2021/04/15 06:13:23;;;;;;;24.52;15.40;;;;;;;3.74;80.07;95316.78;5083898;28;20506;-69
2021/04/15 06:15:53;;;;;;;20.77;13.85;;;;;;;3.79;79.42;95316.28;5084701;28;20058;-69
2021/04/15 06:18:40;;;;;;;19.55;11.90;;;;;;;3.92;77.89;95318.22;5083084;28;20055;-68
2021/04/15 06:21:22;;;;;;;21.95;11.50;;;;;;;4.01;77.78;95325.69;5084544;28;20058;-69
2021/04/15 06:23:56;;;;;;;19.17;11.18;;;;;;;3.98;77.79;95317.50;5084134;28;20047;-68
2021/04/15 06:26:33;;;;;;;19.90;10.35;;;;;;;4.06;76.65;95306.34;5084672;28;20433;-68
2021/04/15 06:29:06;;;;;;;16.70;11.32;;;;;;;4.16;75.42;95319.72;5084078;28;20044;-69
2021/04/15 06:31:36;;;;;;;14.10;9.60;;;;;;;4.17;76.09;95319.56;5087756;28;20747;-69
2021/04/15 06:34:06;;;;;;;17.13;10.65;;;;;;;4.29;75.22;95330.22;5084979;28;20040;-68
2021/04/15 06:36:39;;;;;;;14.93;9.27;;;;;;;4.28;74.76;95325.25;5084453;28;22299;-69
2021/04/15 06:39:27;;;;;;;15.93;10.88;;;;;;;4.38;74.56;95321.41;5085203;28;20044;-69
2021/04/15 06:42:16;;;;;;;18.13;10.65;;;;;;;4.50;74.09;95318.38;5085246;28;20485;-69
2021/04/15 06:45:03;;;;;;;16.42;11.15;;;;;;;4.43;74.54;95320.06;5100578;28;20048;-68
2021/04/15 06:47:53;;;;;;;16.95;11.32;;;;;;;4.20;75.09;95315.84;5086710;28;20078;-69
2021/04/15 06:51:04;;;;;;;19.13;12.90;;;;;;;4.24;75.77;95311.91;5088288;28;20445;-68
2021/04/15 06:54:08;;;;;;;18.40;13.55;;;;;;;4.42;75.96;95318.47;5088280;28;20036;-69
2021/04/15 06:57:10;;;;;;;21.90;13.55;;;;;;;4.70;76.18;95310.84;5087849;28;20047;-69
2021/04/15 07:00:10;;;;;;;17.52;11.30;;;;;;;4.69;74.60;95325.53;5088723;28;20063;-69
2021/04/15 07:02:52;;;;;;;18.52;11.40;;;;;;;4.74;74.54;95312.91;5087257;28;20040;-69
2021/04/15 07:13:19;;;;;;;20.55;13.18;;;;;;;4.60;76.03;95321.47;5089883;27;20619;-69
2021/04/15 07:16:13;;;;;;;20.38;11.57;;;;;;;4.84;74.50;95322.13;5100365;28;20487;-69
2021/04/15 07:19:07;;;;;;;28.30;16.60;;;;;;;5.15;73.60;95324.44;5105499;28;20127;-69
2021/04/15 07:21:43;;;;;;;20.42;12.85;;;;;;;5.17;73.22;95323.25;5101763;27;20052;-69
2021/04/15 07:24:09;;;;;;;19.13;11.40;;;;;;;5.26;71.48;95328.31;5101635;28;20046;-69
2021/04/15 07:27:16;;;;;;;80.47;36.17;;;;;;;5.34;71.42;95323.00;5099647;27;20512;-69
2021/04/15 07:30:16;;;;;;;44.75;23.33;;;;;;;5.50;69.61;95327.09;5101848;28;20123;-69
2021/04/15 07:32:52;;;;;;;22.08;13.18;;;;;;;5.58;70.30;95328.75;5102377;27;20052;-69
2021/04/15 07:35:38;;;;;;;17.77;11.85;;;;;;;5.72;70.17;95328.66;5104787;28;20127;-69
2021/04/15 07:38:20;;;;;;;17.50;11.18;;;;;;;5.81;67.77;95324.13;5102117;27;20102;-70
2021/04/15 07:41:04;;;;;;;15.13;10.63;;;;;;;5.96;67.16;95318.09;5102687;28;20085;-70
2021/04/15 07:43:49;;;;;;;17.17;11.93;;;;;;;6.21;67.43;95310.69;5101882;28;20421;-70
2021/04/15 07:46:37;;;;;;;18.23;11.32;;;;;;;6.01;67.85;95313.16;5102433;27;20432;-69
2021/04/15 07:49:39;;;;;;;19.77;13.27;;;;;;;6.19;67.60;95316.03;5103484;28;20046;-69
2021/04/15 07:52:18;;;;;;;15.77;11.90;;;;;;;6.45;66.08;95315.38;5101866;27;20131;-69
2021/04/15 07:55:19;;;;;;;24.05;14.82;;;;;;;6.36;65.81;95315.75;5102380;28;20071;-69
2021/04/15 07:58:04;;;;;;;21.00;13.90;;;;;;;6.40;66.48;95322.13;5103225;27;20070;-69
2021/04/15 08:00:52;;;;;;;25.67;12.55;;;;;;;6.57;66.26;95317.41;5102525;28;20113;-70
2021/04/15 08:03:37;;;;;;;24.38;15.20;;;;;;;6.35;65.22;95330.44;5102798;28;20071;-69
2021/04/15 08:06:24;;;;;;;18.10;11.90;;;;;;;6.31;65.44;95319.69;5101611;28;20519;-69
2021/04/15 08:09:40;;;;;;;17.40;11.93;;;;;;;6.29;65.47;95337.19;5104452;28;20535;-70
2021/04/15 08:12:24;;;;;;;18.38;11.95;;;;;;;6.15;65.98;95335.53;5031048;28;20049;-69
2021/04/15 08:15:20;;;;;;;24.60;13.82;;;;;;;6.23;66.23;95332.78;5036908;28;20479;-69
2021/04/15 08:18:06;;;;;;;22.83;12.82;;;;;;;6.10;66.58;95345.63;5085807;27;20456;-69
2021/04/15 08:20:54;;;;;;;16.77;9.50;;;;;;;6.03;66.13;95337.84;5101092;28;20054;-69
2021/04/15 08:23:35;;;;;;;22.92;12.98;;;;;;;5.87;67.01;95323.41;5091291;27;20051;-69
2021/04/15 08:26:26;;;;;;;18.55;12.45;;;;;;;6.01;67.18;95346.78;5084562;28;20119;-70
2021/04/15 08:29:07;;;;;;;23.70;13.05;;;;;;;5.94;66.84;95344.09;5087573;28;20460;-69
2021/04/15 08:31:53;;;;;;;25.98;16.42;;;;;;;5.83;67.14;95337.66;5087681;28;20816;-69
2021/04/15 08:34:49;;;;;;;24.33;14.32;;;;;;;5.82;67.30;95325.75;5087624;28;20051;-69
2021/04/15 08:37:31;;;;;;;22.70;12.60;;;;;;;5.85;67.56;95343.47;5085933;27;20074;-69
2021/04/15 08:40:15;;;;;;;20.90;13.27;;;;;;;5.76;66.76;95342.00;5086309;28;20047;-70
2021/04/15 08:43:06;;;;;;;18.02;11.65;;;;;;;5.64;67.54;95333.97;5086505;28;20070;-69
2021/04/15 08:45:51;;;;;;;23.83;15.90;;;;;;;5.63;68.36;95332.38;5091541;28;20209;-69
2021/04/15 08:48:30;;;;;;;;;;;;;;;5.53;68.51;95348.19;5090280;28;20070;-69
2021/04/15 08:51:10;;;;;;;23.23;12.07;;;;;;;5.39;69.78;95325.81;5087382;28;19924;-68
2021/04/15 08:53:57;;;;;;;21.67;13.68;;;;;;;5.51;69.59;95346.78;5086670;28;20056;-69
2021/04/15 08:56:45;;;;;;;27.63;11.60;;;;;;;5.54;69.33;95342.03;5087259;28;20070;-69
2021/04/15 08:59:31;;;;;;;17.35;10.95;;;;;;;5.49;68.94;95331.47;5088566;28;20044;-70
2021/04/15 09:14:32;;;;;;;27.02;19.20;;;;;;;5.53;64.52;95326.75;5067957;27;806406;-70
2021/04/15 09:17:10;;;;;;;15.90;11.45;;;;;;;5.68;64.26;95327.44;5099319;28;20062;-70
2021/04/15 09:19:46;;;;;;;16.15;11.20;;;;;;;5.81;64.38;95334.47;5100335;28;20063;-69
2021/04/15 09:22:18;;;;;;;18.02;10.93;;;;;;;5.76;63.68;95331.66;5100159;28;20060;-70
2021/04/15 09:24:57;;;;;;;17.77;12.38;;;;;;;5.79;64.42;95323.53;5100653;28;20048;-70
2021/04/15 09:27:37;;;;;;;21.27;12.45;;;;;;;5.72;65.34;95330.44;5098972;28;20044;-70
2021/04/15 09:30:20;;;;;;;19.88;13.57;;;;;;;5.83;65.20;95322.16;5100319;28;20051;-69
2021/04/15 09:33:20;;;;;;;16.92;11.35;;;;;;;5.99;65.50;95320.31;5082081;28;20105;-70
2021/04/15 09:36:05;;;;;;;20.90;10.10;;;;;;;6.01;63.69;95308.00;5100563;28;20036;-69
2021/04/15 09:39:05;;;;;;;14.48;10.15;;;;;;;6.04;61.23;95308.41;5100347;28;20532;-70
2021/04/15 09:41:37;;;;;;;14.77;9.90;;;;;;;5.98;59.55;95322.09;5100712;28;20059;-69
2021/04/15 09:44:20;;;;;;;13.32;8.95;;;;;;;5.97;60.56;95296.44;5099300;28;20063;-69
2021/04/15 09:47:06;;;;;;;15.10;9.75;;;;;;;5.99;60.37;95304.78;5100890;28;20127;-69
2021/04/15 09:50:04;;;;;;;58.20;29.95;;;;;;;5.92;59.88;95295.19;5100909;28;20124;-69
2021/04/15 09:52:33;;;;;;;27.60;15.60;;;;;;;6.05;59.66;95298.84;5101035;28;20031;-69
2021/04/15 09:55:17;;;;;;;15.63;8.77;;;;;;;6.09;56.26;95297.50;5099372;28;20051;-69
2021/04/15 09:57:55;;;;;;;14.65;9.98;;;;;;;6.01;56.67;95288.09;5099917;28;20422;-69
2021/04/15 10:00:28;;;;;;;13.45;7.55;;;;;;;6.14;55.39;95302.91;5100009;28;20071;-69
2021/04/15 10:03:06;;;;;;;11.30;7.93;;;;;;;6.29;55.69;95290.63;5099958;28;20508;-70
2021/04/15 10:05:53;;;;;;;10.98;7.75;;;;;;;6.32;55.46;95295.44;5101046;28;20309;-70
2021/04/15 10:08:46;;;;;;;12.75;7.93;;;;;;;6.48;57.83;95290.88;5100492;28;20054;-69
2021/04/15 10:11:36;;;;;;;18.70;9.88;;;;;;;6.57;57.85;95281.16;5043762;28;20126;-70
2021/04/15 10:14:14;;;;;;;14.00;10.27;;;;;;;6.53;58.13;95291.13;5094915;28;20126;-70
2021/04/15 10:17:12;;;;;;;11.43;8.05;;;;;;;6.61;56.98;95292.72;5100883;28;20505;-70
2021/04/15 10:20:01;;;;;;;15.07;8.77;;;;;;;6.61;57.81;95288.38;5100552;28;20060;-70
2021/04/15 10:22:34;;;;;;;16.33;11.93;;;;;;;6.82;58.56;95279.63;5100683;28;20064;-70
2021/04/15 10:25:13;;;;;;;13.57;10.25;;;;;;;6.87;58.15;95281.66;5089158;28;20052;-70
2021/04/15 10:28:01;;;;;;;17.50;10.30;;;;;;;6.93;58.32;95275.69;5085084;28;20044;-71
2021/04/15 10:31:15;;;;;;;17.65;10.40;;;;;;;7.03;58.70;95276.09;5085529;28;20046;-70
2021/04/15 10:33:50;;;;;;;18.13;11.02;;;;;;;6.75;58.76;95259.91;5037125;28;20054;-70
2021/04/15 10:36:43;;;;;;;15.45;10.35;;;;;;;7.03;58.10;95278.69;5086616;28;20115;-70
2021/04/15 10:39:33;;;;;;;12.60;9.23;;;;;;;7.03;55.91;95260.56;5067158;28;20048;-69
2021/04/15 10:42:09;;;;;;;16.45;11.50;;;;;;;7.23;55.73;95264.97;5085714;28;20075;-70
2021/04/15 10:44:56;;;;;;;22.92;13.63;;;;;;;7.50;54.98;95270.16;5085638;28;20052;-70
2021/04/15 10:47:34;;;;;;;13.68;8.75;;;;;;;7.38;53.70;95262.97;5085575;28;20564;-70
2021/04/15 10:50:06;;;;;;;13.57;8.98;;;;;;;7.44;52.45;95269.16;5085673;28;20803;-70
2021/04/15 10:52:55;;;;;;;9.63;7.75;;;;;;;7.42;51.08;95274.53;5076772;28;20058;-70
2021/04/15 10:55:39;;;;;;;12.45;8.60;;;;;;;7.53;52.00;95274.94;5067296;28;20549;-69
2021/04/15 10:58:28;;;;;;;12.13;9.48;;;;;;;7.54;51.41;95271.34;5083306;28;20405;-70
2021/04/15 11:00:56;;;;;;;14.93;10.25;;;;;;;7.62;52.71;95268.53;5072462;28;20521;-70
2021/04/15 11:03:32;;;;;;;18.25;11.70;;;;;;;7.78;52.08;95262.94;5085809;28;20035;-69
2021/04/15 11:06:00;;;;;;;15.52;10.90;;;;;;;8.07;52.04;95260.88;5087004;28;20506;-69
2021/04/15 11:08:31;;;;;;;21.35;12.15;;;;;;;8.28;53.06;95259.00;5069501;28;20044;-68
2021/04/15 11:11:18;;;;;;;22.42;13.63;;;;;;;8.44;50.11;95253.38;5086188;28;20036;-69
2021/04/15 11:13:47;;;;;;;13.88;8.77;;;;;;;8.22;49.74;95248.44;5084450;28;20493;-70
2021/04/15 11:16:19;;;;;;;13.15;10.23;;;;;;;8.47;50.65;95260.75;5087199;28;20048;-70
2021/04/15 11:18:46;;;;;;;12.10;9.27;;;;;;;8.56;49.61;95249.13;5085895;28;20043;-70
2021/04/15 11:21:21;;;;;;;16.38;11.95;;;;;;;8.76;48.46;95253.41;5085477;28;20115;-69
2021/04/15 11:23:49;;;;;;;19.60;14.43;;;;;;;9.06;48.71;95247.66;5086670;28;20047;-66
2021/04/15 11:26:22;;;;;;;12.63;9.73;;;;;;;9.01;46.36;95250.06;5087685;28;20123;-67
2021/04/15 11:28:51;;;;;;;17.15;12.52;;;;;;;9.15;46.74;95246.38;5085319;28;20072;-67
2021/04/15 11:31:29;;;;;;;14.55;10.70;;;;;;;9.28;43.93;95255.88;5085182;28;20040;-67
2021/04/15 11:34:20;;;;;;;9.95;8.23;;;;;;;9.51;45.05;95250.09;5085815;28;20032;-69
2021/04/15 11:36:59;;;;;;;10.02;7.72;;;;;;;9.59;43.54;95251.63;5084972;28;20771;-70
2021/04/15 11:39:38;;;;;;;9.30;7.13;;;;;;;9.36;43.24;95230.41;5085708;28;20032;-69
2021/04/15 11:42:08;;;;;;;13.32;6.90;;;;;;;9.23;43.46;95247.91;5086057;28;20040;-69
2021/04/15 11:44:45;;;;;;;9.32;7.28;;;;;;;9.58;44.65;95235.22;5086960;28;20039;-70
2021/04/15 11:47:25;;;;;;;11.27;6.97;;;;;;;10.60;43.01;95226.09;5086823;28;20043;-69
2021/04/15 11:50:05;;;;;;;10.63;8.20;;;;;;;11.52;42.53;95223.09;5085983;28;20081;-71
2021/04/15 11:52:34;;;;;;;11.02;7.82;;;;;;;11.82;40.88;95214.38;5086192;28;20390;-70
2021/04/15 11:55:04;;;;;;;12.40;6.80;;;;;;;12.15;40.57;95218.19;5087089;28;20062;-70
2021/04/15 11:58:01;;;;;;;10.70;7.80;;;;;;;12.01;41.31;95205.41;5087039;28;20099;-71
2021/04/15 12:00:34;;;;;;;9.70;7.10;;;;;;;11.83;40.15;95210.75;5078782;28;20513;-70
2021/04/15 12:03:01;;;;;;;8.98;7.25;;;;;;;11.57;39.57;95218.00;5086003;28;20040;-70
2021/04/15 12:05:32;;;;;;;18.88;12.27;;;;;;;11.24;40.60;95211.53;5087230;28;20494;-72
2021/04/15 12:08:31;;;;;;;11.52;7.57;;;;;;;11.15;40.71;95212.88;5086923;28;20119;-72
2021/04/15 12:11:06;;;;;;;13.32;8.00;;;;;;;10.74;40.45;95216.31;5067647;28;20046;-71
2021/04/15 12:13:44;;;;;;;34.03;18.15;;;;;;;10.50;40.45;95219.63;5085334;28;20054;-71
2021/04/15 12:16:29;;;;;;;20.70;11.25;;;;;;;10.47;40.09;95207.03;5085345;28;20521;-72
2021/04/15 12:19:09;;;;;;;10.82;7.88;;;;;;;10.35;41.33;95214.00;5086155;28;20043;-71
2021/04/15 12:21:54;;;;;;;8.88;6.75;;;;;;;10.74;39.99;95232.72;5084419;28;20051;-71
2021/04/15 12:24:32;;;;;;;10.40;6.80;;;;;;;10.21;40.30;95218.56;5085020;28;20104;-71
2021/04/15 12:27:04;;;;;;;12.00;8.18;;;;;;;9.98;42.76;95208.81;5084955;28;20051;-71
2021/04/15 12:29:43;;;;;;;11.52;8.40;;;;;;;9.93;41.73;95213.84;5068849;28;20121;-70
2021/04/15 12:32:28;;;;;;;16.88;11.75;;;;;;;9.81;41.92;95207.78;5085637;28;20055;-70
2021/04/15 12:35:02;;;;;;;7.95;6.10;;;;;;;9.68;40.70;95214.69;5067358;28;20047;-70
2021/04/15 12:37:40;;;;;;;9.90;5.63;;;;;;;9.22;41.61;95230.72;5085865;28;20046;-69
2021/04/15 12:40:33;;;;;;;12.68;9.45;;;;;;;9.33;42.48;95217.84;5067108;28;20044;-70
2021/04/15 12:43:06;;;;;;;11.07;7.10;;;;;;;9.20;44.00;95217.94;5080313;28;20564;-70
2021/04/15 12:45:37;;;;;;;10.00;6.65;;;;;;;9.12;43.20;95210.41;5085604;28;20042;-70
2021/04/15 12:48:06;;;;;;;12.43;6.75;;;;;;;9.07;43.12;95213.63;5084358;28;20044;-70
2021/04/15 12:50:34;;;;;;;8.25;6.25;;;;;;;9.09;44.00;95205.63;5086121;28;20042;-70
2021/04/15 12:53:03;;;;;;;11.00;6.63;;;;;;;8.94;43.53;95224.13;5085742;28;20097;-70